This is the latest recevied weather packets stored in our database for station/object KB8DOA. If no packets are shown the sender has not sent any weather packets the latest 10 day(s).
| Time | Temp. | Humidity | Pressure | Rain* | Wind** | Luminosity | Snow |
|---|---|---|---|---|---|---|---|
| 1777829103 | 25.56° C | 80% | 1012.5 hPa | 0 mm | - | 1292 W/m² | - |
| 1777828204 | 25.56° C | 82% | 1013.4 hPa | 0 mm | - | 1287 W/m² | - |
| 1777827004 | 25.56° C | 81% | 1012.9 hPa | 0 mm | - | 1268 W/m² | - |
| 1777823704 | 24.44° C | 89% | 1014.9 hPa | 0 mm | - | 1145 W/m² | - |
| 1777822504 | 24.44° C | 92% | 1016.5 hPa | 0 mm | - | 1077 W/m² | - |
| 1777818904 | 22.78° C | 98% | 1016.2 hPa | 0 mm | - | 823 W/m² | - |
| 1777818303 | 22.78° C | 98% | 1016.4 hPa | 0 mm | - | 775 W/m² | - |
| 1777818004 | 22.78° C | 98% | 1016.4 hPa | 0.25 mm | - | 751 W/m² | - |
| 1777816204 | 22.22° C | 97% | 1016 hPa | 6.86 mm | - | 603 W/m² | - |
| 1777815604 | 22.22° C | 97% | 1015.9 hPa | 6.86 mm | - | 554 W/m² | - |
| 1777813204 | 22.22° C | 96% | 1016.2 hPa | 2.54 mm | - | 217 W/m² | - |
| 1777812004 | 22.22° C | 95% | 1015.8 hPa | 4.06 mm | - | 110 W/m² | - |
| 1777811404 | 22.22° C | 95% | 1015.5 hPa | 6.6 mm | - | 88 W/m² | - |
| 1777809603 | 22.78° C | 94% | 1014.9 hPa | 6.35 mm | - | 26 W/m² | - |
| 1777805404 | 22.78° C | 90% | 1013.2 hPa | 3.3 mm | - | 1 W/m² | - |
| 1777802104 | 25° C | 83% | 1012.2 hPa | 0 mm | - | 0 W/m² | - |
| 1777801804 | 25° C | 83% | 1012.4 hPa | 0 mm | - | 0 W/m² | - |
| 1777796103 | 26.67° C | 82% | 1012.7 hPa | 0 mm | - | 0 W/m² | - |
| 1777794904 | 26.67° C | 81% | 1012.1 hPa | 0 mm | - | 0 W/m² | - |
| 1777791304 | 26.11° C | 80% | 1011.1 hPa | 0 mm | - | 0 W/m² | - |
| 1777785007 | 26.67° C | 81% | 1013.5 hPa | 0 mm | - | 0 W/m² | - |
| 1777781704 | 26.67° C | 77% | 1012.8 hPa | 0 mm | - | 0 W/m² | - |
| 1777780504 | 27.22° C | 77% | 1012.5 hPa | 0 mm | - | 0 W/m² | - |
| 1777779603 | 27.22° C | 76% | 1012.1 hPa | 0 mm | - | 0 W/m² | - |
| 1777778704 | 27.22° C | 75% | 1011.9 hPa | 0 mm | - | 0 W/m² | - |
* Rain latest hour (hover to see other rain measurements)
** Current wind speed in m/s (hover to see current wind gust speed)